LOWS/SZG METAR and TAF weather

Enter ICAO airport designator
Station Type Date Time Source
LOWS METAR 2022/09/28 19:20 UTC NOAA

LOWS 281920Z VRB02KT 9999 -RA FEW005 SCT017 BKN045 08/08 Q1001 TEMPO RA


Station Type Date Time Source
LOWS Decoded METAR 2022/09/28 19:20 UTC NOAA

Salzburg-Flughafen, Austria (LOWS) 47-48N 013-00E 450M
Sep 28, 2022 - 03:20 PM EDT / 2022.09.28 1920 UTC
Wind: Variable at 2 MPH (2 KT):0
Visibility: greater than 7 mile(s):0
Sky conditions: mostly cloudy
Weather: light rain
Temperature: 46 F (8 C)
Dew Point: 46 F (8 C)
Relative Humidity: 100%
Pressure (altimeter): 29.56 in. Hg (1001 hPa)
ob: LOWS 281920Z VRB02KT 9999 -RA FEW005 SCT017 BKN045 08/08 Q1001 TEMPO RA
cycle: 19

Station Type Date Time Source
LOWS TAF 2022/09/28 18:21 UTC NOAA

TAF LOWS 281715Z 2818/2918 15006KT 9999 FEW030 BKN040 TX11/2913Z TN07/2903Z
TEMPO 2818/2905 -RA PROB30
TEMPO 2818/2904 4000 RA BKN012
BECMG 2908/2910 02006KT
BECMG 2912/2914 -RA SCT009 BKN020
TEMPO 2914/2918 4000 RA BKN012

Example: see airport list